KASH/ASH METAR and TAF weather

Enter ICAO airport designator
Station Type Date Time Source
KASH METAR 2020/01/22 11:56 UTC NOAA

KASH 221156Z 00000KT 10SM CLR M15/M17 A3042 RMK AO2 SLP311 T11501167 11111 21156 53009


Station Type Date Time Source
KASH Decoded METAR 2020/01/22 11:56 UTC NOAA

Nashua, Boire Field Airport, NH, United States (KASH) 42-46-54N 071-30-53W
Jan 22, 2020 - 06:56 AM EST / 2020.01.22 1156 UTC
Wind: Calm:0
Visibility: 10 mile(s):0
Sky conditions: clear
Temperature: 5.0 F (-15.0 C)
Dew Point: 1.9 F (-16.7 C)
Relative Humidity: 86%
Pressure (altimeter): 30.42 in. Hg (1030 hPa)
Pressure tendency: 0.03 inches (0.9 hPa) higher than three hours ago
ob: KASH 221156Z 00000KT 10SM CLR M15/M17 A3042 RMK AO2 SLP311 T11501167 11111 21156 53009
cycle: 12

Station Type Date Time Source
KASH TAF UTC NOAA

Error!

Example: see airport list